createdAt,value
2019-04-20T00:00:56.122Z,64.25
2019-04-20T00:03:32.251Z,65.25
2019-04-20T00:05:57.207Z,64.25
2019-04-20T00:08:31.177Z,63.25
2019-04-20T00:11:07.354Z,68.50
2019-04-20T00:13:40.711Z,61.75
2019-04-20T00:16:00.027Z,73.75
2019-04-20T00:18:34.507Z,68.50
2019-04-20T00:21:19.109Z,75.75
2019-04-20T00:23:51.805Z,65.50
2019-04-20T00:27:20.697Z,59.25
2019-04-20T00:29:38.036Z,66.25
2019-04-20T00:32:01.613Z,67.50
2019-04-20T00:34:26.465Z,59.50
2019-04-20T00:36:49.869Z,70.25
2019-04-20T00:39:20.233Z,68.25
2019-04-20T00:41:57.134Z,65.00
2019-04-20T00:44:27.321Z,69.00
2019-04-20T00:47:04.912Z,61.75
2019-04-20T00:49:38.803Z,71.75
2019-04-20T00:52:24.142Z,67.25
2019-04-20T00:54:26.380Z,66.50
2019-04-20T00:57:05.781Z,64.25
2019-04-20T00:59:42.436Z,72.25
2019-04-20T01:02:13.185Z,71.50
2019-04-20T01:04:47.746Z,69.00
2019-04-20T01:07:38.612Z,65.75
2019-04-20T01:10:05.436Z,72.25
2019-04-20T01:12:37.418Z,71.25
2019-04-20T01:15:11.094Z,74.50
2019-04-20T01:17:41.749Z,75.75
2019-04-20T01:20:09.702Z,70.50
2019-04-20T01:22:44.623Z,62.00
2019-04-20T01:25:20.685Z,70.75
2019-04-20T01:28:02.198Z,78.50
2019-04-20T01:30:20.922Z,84.00
2019-04-20T01:33:12.739Z,66.50
2019-04-20T01:35:31.945Z,72.50
2019-04-20T01:38:00.814Z,80.75
2019-04-20T01:40:16.972Z,78.00
2019-04-20T01:42:46.779Z,71.75
2019-04-20T01:45:25.215Z,64.00
2019-04-20T01:47:51.463Z,70.25
2019-04-20T01:50:22.694Z,70.25
2019-04-20T01:53:03.058Z,72.25
2019-04-20T01:55:43.649Z,82.00
2019-04-20T01:58:36.281Z,82.50
2019-04-20T02:01:14.965Z,82.50
2019-04-20T02:03:48.553Z,74.25
2019-04-20T02:06:18.805Z,86.25
2019-04-20T02:08:51.710Z,76.00
2019-04-20T02:11:25.462Z,81.25
2019-04-20T02:13:55.150Z,83.25
2019-04-20T02:16:28.811Z,76.50
2019-04-20T02:19:10.821Z,78.25
2019-04-20T02:21:37.917Z,81.50
2019-04-20T02:23:57.770Z,80.50
2019-04-20T02:26:23.991Z,86.75
2019-04-20T02:29:18.956Z,76.50
2019-04-20T02:32:06.470Z,78.75
2019-04-20T02:42:08.802Z,76.25
2019-04-20T02:44:42.279Z,77.25
2019-04-20T02:47:16.443Z,83.50
2019-04-20T02:57:10.736Z,87.75
2019-04-20T03:02:00.325Z,83.75
2019-04-20T03:04:23.121Z,86.25
2019-04-20T03:06:59.769Z,83.50
2019-04-20T03:09:36.834Z,90.75
2019-04-20T03:12:08.023Z,86.50
2019-04-20T03:14:32.424Z,85.00
2019-04-20T03:17:12.844Z,81.50
2019-04-20T03:19:31.426Z,81.00
2019-04-20T03:22:09.119Z,78.50
2019-04-20T03:24:47.013Z,80.50
2019-04-20T03:27:08.278Z,84.75
2019-04-20T03:30:07.802Z,89.50
2019-04-20T03:35:24.964Z,91.00
2019-04-20T03:37:44.181Z,90.25
2019-04-20T03:40:07.349Z,90.50
2019-04-20T03:42:20.094Z,81.25
2019-04-20T03:44:57.943Z,93.00
2019-04-20T03:47:30.413Z,74.75
2019-04-20T03:50:14.728Z,86.50
2019-04-20T03:52:49.248Z,89.25
2019-04-20T03:55:30.281Z,80.25
2019-04-20T03:58:18.584Z,88.75
2019-04-20T04:01:31.452Z,91.25
2019-04-20T04:04:06.648Z,87.50
2019-04-20T04:06:26.399Z,90.00
2019-04-20T04:09:02.743Z,89.00
2019-04-20T04:11:34.846Z,87.50
2019-04-20T04:13:48.400Z,87.00
2019-04-20T04:16:21.587Z,99.00
2019-04-20T04:18:59.275Z,86.25
2019-04-20T04:21:33.552Z,92.25
2019-04-20T04:24:07.171Z,89.00
2019-04-20T04:26:37.820Z,98.50
2019-04-20T04:29:19.883Z,92.00
2019-04-20T04:31:45.508Z,88.25
2019-04-20T04:34:12.464Z,86.50
2019-04-20T04:36:44.573Z,94.75
2019-04-20T04:39:22.814Z,85.25
2019-04-20T04:41:55.976Z,90.50
2019-04-20T04:44:11.237Z,95.75
2019-04-20T04:46:29.238Z,97.00
2019-04-20T04:49:10.567Z,93.50
2019-04-20T04:51:42.454Z,97.75
2019-04-20T04:54:12.882Z,93.75
2019-04-20T04:56:33.553Z,97.00
2019-04-20T04:59:02.850Z,97.75
2019-04-20T05:01:35.242Z,89.00
2019-04-20T05:04:24.762Z,96.50
2019-04-20T05:06:52.193Z,93.00
2019-04-20T05:09:09.893Z,86.25
2019-04-20T05:11:36.700Z,91.25
2019-04-20T05:14:10.632Z,93.00
2019-04-20T05:16:49.956Z,95.50
2019-04-20T05:19:29.767Z,92.75
2019-04-20T05:22:15.948Z,91.75
2019-04-20T05:25:03.496Z,97.50
2019-04-20T05:27:47.923Z,100.25
2019-04-20T05:29:57.000Z,94.75
2019-04-20T05:32:36.140Z,98.75
2019-04-20T05:35:25.484Z,91.50
2019-04-20T05:37:53.708Z,92.00
2019-04-20T05:40:22.336Z,87.00
2019-04-20T05:43:01.937Z,96.50
2019-04-20T05:45:24.883Z,94.50
2019-04-20T05:47:59.122Z,97.50
2019-04-20T05:50:38.551Z,95.50
2019-04-20T05:53:07.473Z,93.00
2019-04-20T05:55:39.086Z,85.25
2019-04-20T05:58:14.549Z,89.25
2019-04-20T06:00:43.583Z,88.75
2019-04-20T06:03:05.519Z,88.25
2019-04-20T06:05:48.769Z,89.75
2019-04-20T06:08:15.313Z,92.00
2019-04-20T06:10:45.268Z,90.00
2019-04-20T06:13:27.849Z,94.00
2019-04-20T06:16:09.000Z,88.75
2019-04-20T06:19:18.245Z,90.50
2019-04-20T06:21:45.164Z,92.25
2019-04-20T06:24:18.315Z,99.25
2019-04-20T06:27:03.196Z,96.00
2019-04-20T06:29:26.333Z,93.00
2019-04-20T06:32:08.657Z,91.25
2019-04-20T06:34:41.652Z,83.25
2019-04-20T06:37:06.787Z,87.75
2019-04-20T06:42:19.331Z,89.75
2019-04-20T06:44:41.308Z,81.25
2019-04-20T06:47:24.793Z,85.25
2019-04-20T06:49:38.109Z,92.00
2019-04-20T06:52:42.177Z,87.50
2019-04-20T06:55:14.120Z,89.00
2019-04-20T06:58:01.203Z,83.75
2019-04-20T07:00:30.819Z,85.00
2019-04-20T07:02:52.966Z,77.50
2019-04-20T07:05:22.121Z,86.25
2019-04-20T07:07:54.733Z,80.75
2019-04-20T07:10:27.195Z,86.75
2019-04-20T07:12:51.758Z,92.00
2019-04-20T07:15:27.059Z,85.50
2019-04-20T07:20:42.705Z,80.75
2019-04-20T07:23:23.826Z,78.25
2019-04-20T07:25:44.603Z,78.25
2019-04-20T07:28:14.319Z,79.25
2019-04-20T07:30:45.227Z,81.25
2019-04-20T07:33:20.043Z,79.00
2019-04-20T07:35:42.927Z,76.25
2019-04-20T07:40:44.088Z,76.50
2019-04-20T07:43:14.652Z,71.00
2019-04-20T07:45:41.556Z,73.00
2019-04-20T07:48:29.569Z,71.50
2019-04-20T07:50:43.190Z,72.00
2019-04-20T07:53:18.280Z,64.50
2019-04-20T07:55:53.963Z,68.25
2019-04-20T07:58:15.545Z,68.00
2019-04-20T08:01:04.223Z,62.75
2019-04-20T08:03:57.002Z,61.75
2019-04-20T08:06:20.068Z,66.00
2019-04-20T08:08:57.254Z,68.25
2019-04-20T08:11:36.752Z,65.75
2019-04-20T08:14:12.835Z,67.00
2019-04-20T08:19:07.923Z,53.75
2019-04-20T08:21:40.507Z,61.25
2019-04-20T08:26:26.930Z,63.00
2019-04-20T08:29:02.491Z,53.50
2019-04-20T08:32:08.779Z,52.00
2019-04-20T08:34:42.039Z,50.00
2019-04-20T08:37:09.837Z,59.00
2019-04-20T08:39:52.159Z,53.25
2019-04-20T08:42:11.715Z,46.75
2019-04-20T08:45:02.976Z,53.00
2019-04-20T08:47:27.885Z,46.25
2019-04-20T08:50:19.309Z,52.25
2019-04-20T08:53:07.184Z,47.00
2019-04-20T08:55:10.560Z,53.25
2019-04-20T08:57:26.911Z,52.25
2019-04-20T08:59:59.581Z,46.75
2019-04-20T09:02:28.085Z,56.00
2019-04-20T09:05:03.194Z,54.00
2019-04-20T09:07:31.554Z,53.00
2019-04-20T09:10:25.330Z,55.00
2019-04-20T09:12:45.282Z,52.75
2019-04-20T09:15:01.604Z,49.50
2019-04-20T09:17:44.950Z,47.00
2019-04-20T09:20:14.692Z,52.00
2019-04-20T09:23:02.183Z,51.25
2019-04-20T09:25:48.673Z,52.00
2019-04-20T09:28:19.430Z,55.75
2019-04-20T09:30:50.478Z,50.00
2019-04-20T09:34:02.750Z,51.75
2019-04-20T09:36:38.603Z,38.00
2019-04-20T09:39:18.602Z,47.50
2019-04-20T09:42:00.359Z,40.25
2019-04-20T09:44:24.558Z,35.25
2019-04-20T09:46:56.938Z,35.25
2019-04-20T09:49:38.748Z,29.50
2019-04-20T09:52:11.233Z,31.50
2019-04-20T09:54:48.171Z,30.50
2019-04-20T09:57:19.711Z,30.75
2019-04-20T09:59:51.306Z,33.50
2019-04-20T10:02:06.823Z,32.00
2019-04-20T10:04:31.250Z,36.25
2019-04-20T10:07:08.889Z,30.25
2019-04-20T10:09:37.502Z,31.50
2019-04-20T10:12:03.605Z,35.00
2019-04-20T10:14:35.215Z,35.00
2019-04-20T10:17:05.682Z,34.50
2019-04-20T10:19:38.173Z,36.75
2019-04-20T10:22:08.549Z,29.25
2019-04-20T10:24:38.861Z,36.25
2019-04-20T10:27:08.394Z,29.25
2019-04-20T10:29:37.638Z,33.00
2019-04-20T10:32:11.071Z,30.50
2019-04-20T10:34:38.839Z,29.25
2019-04-20T10:37:11.487Z,32.00
2019-04-20T10:39:42.642Z,36.50
2019-04-20T10:42:12.233Z,30.75
2019-04-20T10:44:41.468Z,31.25
2019-04-20T10:47:11.378Z,39.00
2019-04-20T10:49:40.839Z,33.00
2019-04-20T10:52:10.151Z,32.00
2019-04-20T10:54:40.420Z,28.50
2019-04-20T10:57:09.887Z,33.25
2019-04-20T10:59:39.423Z,33.25
2019-04-20T11:02:09.921Z,34.75
2019-04-20T11:04:39.311Z,38.50
2019-04-20T11:07:08.534Z,34.50
2019-04-20T11:09:38.714Z,31.00
2019-04-20T11:12:08.460Z,30.25
2019-04-20T11:14:41.889Z,35.50
2019-04-20T11:17:08.716Z,36.75
2019-04-20T11:19:39.114Z,35.75
2019-04-20T11:22:08.598Z,39.25
2019-04-20T11:24:38.566Z,36.25
2019-04-20T11:27:08.070Z,32.50
2019-04-20T11:29:38.013Z,33.50
2019-04-20T11:32:07.442Z,32.00
2019-04-20T11:34:39.915Z,36.25
2019-04-20T11:37:08.819Z,28.25
2019-04-20T11:39:39.134Z,32.75
2019-04-20T11:42:09.859Z,33.00
2019-04-20T11:44:39.203Z,32.50
2019-04-20T11:47:08.579Z,37.50
2019-04-20T11:49:37.880Z,36.25
2019-04-20T11:52:07.769Z,35.25
2019-04-20T11:54:37.446Z,33.25
2019-04-20T11:57:07.125Z,35.75
2019-04-20T11:59:37.134Z,37.75
2019-04-20T12:02:44.298Z,35.00
2019-04-20T12:05:24.952Z,33.75
2019-04-20T12:07:56.649Z,30.25
2019-04-20T12:10:27.622Z,37.50
2019-04-20T12:12:57.534Z,35.25
2019-04-20T12:15:26.889Z,38.50
2019-04-20T12:17:55.994Z,32.50
2019-04-20T12:23:00.307Z,32.75
2019-04-20T12:25:32.877Z,30.50
2019-04-20T12:28:02.336Z,31.50
2019-04-20T12:30:31.601Z,30.50
2019-04-20T12:33:02.183Z,33.25
2019-04-20T12:35:32.032Z,33.00
2019-04-20T12:38:03.073Z,30.75
2019-04-20T12:40:32.474Z,30.00
2019-04-20T12:43:01.525Z,37.75
2019-04-20T12:45:31.517Z,37.50
2019-04-20T12:48:01.765Z,34.75
2019-04-20T12:50:39.541Z,35.50
2019-04-20T12:53:10.703Z,35.00
2019-04-20T12:55:40.892Z,32.25
2019-04-20T12:58:10.559Z,33.50
2019-04-20T13:00:45.938Z,32.25
2019-04-20T13:03:15.293Z,32.75
2019-04-20T13:05:45.853Z,34.50
2019-04-20T13:08:23.306Z,37.25
2019-04-20T13:10:54.607Z,37.75
2019-04-20T13:13:44.228Z,38.75
2019-04-20T13:16:32.368Z,33.25
2019-04-20T13:19:03.732Z,42.25
2019-04-20T13:21:33.007Z,36.50
2019-04-20T13:24:03.250Z,41.75
2019-04-20T13:26:33.260Z,36.00
2019-04-20T13:29:02.655Z,33.00
2019-04-20T13:31:31.727Z,40.25
2019-04-20T13:34:01.504Z,33.25
2019-04-20T13:36:32.439Z,35.75
2019-04-20T13:39:01.882Z,35.50
2019-04-20T13:41:31.720Z,35.75
2019-04-20T13:44:03.124Z,34.75
2019-04-20T13:46:33.073Z,33.50
2019-04-20T13:49:02.973Z,32.00
2019-04-20T13:51:32.851Z,32.50
2019-04-20T13:54:07.405Z,35.00
2019-04-20T13:56:33.990Z,32.50
2019-04-20T13:59:27.875Z,36.75
2019-04-20T14:02:05.090Z,33.50
2019-04-20T14:04:38.929Z,36.75
2019-04-20T14:07:09.377Z,36.25
2019-04-20T14:09:39.575Z,37.25
2019-04-20T14:12:16.200Z,36.00
2019-04-20T14:14:41.265Z,35.50
2019-04-20T14:17:10.890Z,34.00
2019-04-20T14:19:41.106Z,37.00
2019-04-20T14:22:10.452Z,34.50
2019-04-20T14:24:40.357Z,34.75
2019-04-20T14:27:10.568Z,34.25
2019-04-20T14:29:41.193Z,36.75
2019-04-20T14:32:11.982Z,35.00
2019-04-20T14:34:42.865Z,35.75
2019-04-20T14:37:12.929Z,34.75
2019-04-20T14:39:43.498Z,37.50
2019-04-20T14:42:23.207Z,34.25
2019-04-20T14:44:43.777Z,35.00
2019-04-20T14:47:13.891Z,35.50
2019-04-20T14:49:44.627Z,34.50
2019-04-20T14:52:15.530Z,36.75
2019-04-20T14:54:45.653Z,38.75
2019-04-20T14:57:15.007Z,36.50
2019-04-20T14:59:51.612Z,41.25
2019-04-20T15:02:22.662Z,34.75
2019-04-20T15:04:52.761Z,34.75
2019-04-20T15:07:22.612Z,35.75
2019-04-20T15:09:55.182Z,33.00
2019-04-20T15:12:36.561Z,38.25
2019-04-20T15:14:56.505Z,35.75
2019-04-20T15:17:35.262Z,36.00
2019-04-20T15:20:23.695Z,37.00
2019-04-20T15:22:55.349Z,34.00
2019-04-20T15:25:25.472Z,35.00
2019-04-20T15:27:54.713Z,36.25
2019-04-20T15:30:24.999Z,34.50
2019-04-20T15:32:54.645Z,34.00
2019-04-20T15:35:24.772Z,37.25
2019-04-20T15:37:55.319Z,41.75
2019-04-20T15:40:24.711Z,36.50
2019-04-20T15:43:01.058Z,35.25
2019-04-20T15:45:25.695Z,35.00
2019-04-20T15:47:56.207Z,35.00
2019-04-20T15:50:25.719Z,38.25
2019-04-20T15:52:58.390Z,37.00
2019-04-20T15:55:32.030Z,33.75
2019-04-20T15:57:57.661Z,36.75
2019-04-20T16:00:28.563Z,34.75
2019-04-20T16:03:09.606Z,35.50
2019-04-20T16:05:42.996Z,37.50
2019-04-20T16:08:30.351Z,37.00
2019-04-20T16:10:59.653Z,39.50
2019-04-20T16:13:36.126Z,34.75
2019-04-20T16:15:59.775Z,35.75
2019-04-20T16:18:30.597Z,36.25
2019-04-20T16:21:07.996Z,41.25
2019-04-20T16:23:42.990Z,35.50
2019-04-20T16:26:25.895Z,35.75
2019-04-20T16:28:57.678Z,38.50
2019-04-20T16:31:26.929Z,37.25
2019-04-20T16:33:58.517Z,38.00
2019-04-20T16:36:28.148Z,39.00
2019-04-20T16:38:57.654Z,44.25
2019-04-20T16:41:26.846Z,40.75
2019-04-20T16:43:57.403Z,37.75
2019-04-20T16:46:28.012Z,32.50
2019-04-20T16:48:57.322Z,36.75
2019-04-20T16:51:27.012Z,35.50
2019-04-20T16:53:59.675Z,40.00
2019-04-20T16:56:28.824Z,35.00
2019-04-20T16:59:05.590Z,35.75
2019-04-20T17:01:29.700Z,42.00
2019-04-20T17:04:07.011Z,33.25
2019-04-20T17:06:31.996Z,39.00
2019-04-20T17:09:02.992Z,34.25
2019-04-20T17:11:33.971Z,38.00
2019-04-20T17:14:03.684Z,39.00
2019-04-20T17:16:33.590Z,37.25
2019-04-20T17:19:03.825Z,34.00
2019-04-20T17:21:40.271Z,37.75
2019-04-20T17:24:11.343Z,35.25
2019-04-20T17:26:50.747Z,35.25
2019-04-20T17:29:26.180Z,29.50
2019-04-20T17:32:27.466Z,32.25
2019-04-20T17:37:56.326Z,35.50
2019-04-20T17:40:46.123Z,35.00
2019-04-20T17:43:06.558Z,39.00
2019-04-20T17:45:41.558Z,33.75
2019-04-20T17:48:17.412Z,35.00
2019-04-20T17:50:56.157Z,34.50
2019-04-20T17:53:29.345Z,38.75
2019-04-20T17:55:53.108Z,35.75
2019-04-20T17:58:27.973Z,36.75
2019-04-20T18:01:22.101Z,41.00
2019-04-20T18:04:24.487Z,37.50
2019-04-20T18:06:27.257Z,40.25
2019-04-20T18:09:00.418Z,36.75
2019-04-20T18:11:20.110Z,34.25
2019-04-20T18:13:46.766Z,39.25
2019-04-20T18:16:45.337Z,35.50
2019-04-20T18:19:08.476Z,38.25
2019-04-20T18:21:40.152Z,40.25
2019-04-20T18:24:14.518Z,38.75
2019-04-20T18:26:59.166Z,37.50
2019-04-20T18:29:32.559Z,31.25
2019-04-20T18:31:55.933Z,39.75
2019-04-20T18:34:36.328Z,37.00
2019-04-20T18:37:10.700Z,39.50
2019-04-20T18:39:46.265Z,38.00
2019-04-20T18:42:18.590Z,45.00
2019-04-20T18:45:00.958Z,37.50
2019-04-20T18:47:33.123Z,41.00
2019-04-20T18:49:50.508Z,33.00
2019-04-20T18:52:14.037Z,34.00
2019-04-20T18:54:47.455Z,39.00
2019-04-20T18:57:21.804Z,35.75
2019-04-20T18:59:52.265Z,38.00
2019-04-20T19:02:23.818Z,35.25
2019-04-20T19:04:50.087Z,35.00
2019-04-20T19:07:19.789Z,34.50
2019-04-20T19:09:53.275Z,37.25
2019-04-20T19:12:30.100Z,39.00
2019-04-20T19:15:31.697Z,35.25
2019-04-20T19:18:05.720Z,33.75
2019-04-20T19:20:33.035Z,43.50
2019-04-20T19:23:02.406Z,38.75
2019-04-20T19:25:36.766Z,42.25
2019-04-20T19:28:04.698Z,35.75
2019-04-20T19:30:40.704Z,43.50
2019-04-20T19:33:19.157Z,42.00
2019-04-20T19:35:48.136Z,40.25
2019-04-20T19:38:12.598Z,42.50
2019-04-20T19:40:47.923Z,41.25
2019-04-20T19:43:20.813Z,35.25
2019-04-20T19:46:24.359Z,33.00
2019-04-20T19:48:24.079Z,44.75
2019-04-20T19:51:05.541Z,38.25
2019-04-20T19:53:36.674Z,43.00
2019-04-20T19:56:00.066Z,39.25
2019-04-20T19:58:33.195Z,44.50
2019-04-20T20:00:53.652Z,40.50
2019-04-20T20:03:22.073Z,44.00
2019-04-20T20:05:53.852Z,39.25
2019-04-20T20:08:27.245Z,50.75
2019-04-20T20:10:54.809Z,43.00
2019-04-20T20:13:34.599Z,44.75
2019-04-20T20:16:02.465Z,51.50
2019-04-20T20:18:46.565Z,46.50
2019-04-20T20:21:15.198Z,41.25
2019-04-20T20:23:34.180Z,49.25
2019-04-20T20:26:07.179Z,45.00
2019-04-20T20:28:43.671Z,42.00
2019-04-20T20:31:17.015Z,46.25
2019-04-20T20:33:53.439Z,45.00
2019-04-20T20:36:12.759Z,46.00
2019-04-20T20:38:45.762Z,42.50
2019-04-20T20:41:22.899Z,58.75
2019-04-20T20:43:58.356Z,44.25
2019-04-20T20:46:25.480Z,44.25
2019-04-20T20:49:04.849Z,49.50
2019-04-20T20:51:39.157Z,56.25
2019-04-20T20:53:56.564Z,48.50
2019-04-20T20:56:24.481Z,52.75
2019-04-20T20:58:59.484Z,50.75
2019-04-20T21:01:25.394Z,53.50
2019-04-20T21:03:53.098Z,45.50
2019-04-20T21:06:22.411Z,49.00
2019-04-20T21:08:55.724Z,56.75
2019-04-20T21:11:27.504Z,46.00
2019-04-20T21:13:54.604Z,50.25
2019-04-20T21:16:33.402Z,49.50
2019-04-20T21:19:17.201Z,53.25
2019-04-20T21:25:40.876Z,51.00
2019-04-20T21:28:06.887Z,54.00
2019-04-20T21:30:41.907Z,63.50
2019-04-20T21:33:20.725Z,55.00
2019-04-20T21:35:52.124Z,59.00
2019-04-20T21:38:23.148Z,53.75
2019-04-20T21:41:02.121Z,58.75
2019-04-20T21:43:27.815Z,59.50
2019-04-20T21:45:59.464Z,55.25
2019-04-20T21:48:38.047Z,51.50
2019-04-20T21:51:08.625Z,55.50
2019-04-20T21:53:57.899Z,51.25
2019-04-20T21:56:30.012Z,55.00
2019-04-20T21:59:02.474Z,55.75
2019-04-20T22:01:37.517Z,60.00
2019-04-20T22:04:02.439Z,63.25
2019-04-20T22:06:32.097Z,53.50
2019-04-20T22:09:04.040Z,46.00
2019-04-20T22:11:33.785Z,62.25
2019-04-20T22:14:09.471Z,58.75
2019-04-20T22:16:40.979Z,61.00
2019-04-20T22:19:22.407Z,62.50
2019-04-20T22:21:50.109Z,61.50
2019-04-20T22:24:25.327Z,57.50
2019-04-20T22:26:51.605Z,58.75
2019-04-20T22:29:08.229Z,63.25
2019-04-20T22:31:38.253Z,50.25
2019-04-20T22:34:19.253Z,60.50
2019-04-20T22:36:48.214Z,66.00
2019-04-20T22:39:24.561Z,62.25
2019-04-20T22:42:01.127Z,61.75
2019-04-20T22:44:28.342Z,59.00
2019-04-20T22:46:56.630Z,65.75
2019-04-20T22:49:39.994Z,66.00
2019-04-20T22:52:06.397Z,69.50
2019-04-20T22:54:42.308Z,68.25
2019-04-20T22:57:08.743Z,64.25
2019-04-20T22:59:38.513Z,65.00
2019-04-20T23:02:02.349Z,63.25
2019-04-20T23:04:31.043Z,59.50
2019-04-20T23:07:00.970Z,65.50
2019-04-20T23:09:34.194Z,64.75
2019-04-20T23:12:09.190Z,71.50
2019-04-20T23:14:34.286Z,73.25
2019-04-20T23:17:04.279Z,64.50
2019-04-20T23:19:41.659Z,62.00
2019-04-20T23:22:13.365Z,72.75
2019-04-20T23:24:41.465Z,64.50
2019-04-20T23:27:17.045Z,58.75
2019-04-20T23:29:42.182Z,67.00
2019-04-20T23:32:14.534Z,66.00
2019-04-20T23:34:44.641Z,78.75
2019-04-20T23:37:20.543Z,77.00
2019-04-20T23:39:47.258Z,71.00
2019-04-20T23:42:19.905Z,71.75
2019-04-20T23:45:05.724Z,78.25
2019-04-20T23:47:46.667Z,75.00
2019-04-20T23:50:34.044Z,77.75
2019-04-20T23:53:05.508Z,76.50
2019-04-20T23:55:17.538Z,77.50
2019-04-20T23:57:54.767Z,80.50
